createdAt,value
2022-10-24T08:31:00.191Z,13.01
2022-10-24T08:33:02.846Z,13.01
2022-10-24T08:35:06.808Z,12.69
2022-10-24T08:37:09.367Z,12.81
2022-10-24T08:39:12.065Z,12.98
2022-10-24T08:41:20.827Z,13.12
2022-10-24T08:43:24.142Z,13.21
2022-10-24T08:45:38.810Z,13.36
2022-10-24T08:47:58.671Z,13.41
2022-10-24T08:50:16.675Z,13.58
2022-10-24T08:52:23.919Z,13.42
2022-10-24T08:54:34.313Z,13.75
2022-10-24T08:56:36.661Z,13.82
2022-10-24T08:58:43.355Z,13.94
2022-10-24T09:00:49.415Z,14.00
2022-10-24T09:03:56.016Z,14.12
2022-10-24T09:06:02.825Z,14.31
2022-10-24T09:08:23.028Z,14.48
2022-10-24T09:10:50.175Z,14.61
2022-10-24T09:12:52.874Z,14.77
2022-10-24T09:14:59.286Z,14.93
2022-10-24T09:17:11.170Z,14.87
2022-10-24T09:19:18.268Z,14.92
2022-10-24T09:21:22.396Z,14.91
2022-10-24T09:23:26.497Z,14.91
2022-10-24T09:25:33.356Z,14.81
2022-10-24T09:27:39.343Z,14.85
2022-10-24T09:29:42.406Z,14.74
2022-10-24T09:31:44.981Z,14.68
2022-10-24T09:33:49.522Z,14.60
2022-10-24T09:35:54.209Z,14.47
2022-10-24T09:38:18.535Z,14.37
2022-10-24T09:40:23.765Z,14.45
2022-10-24T09:42:25.987Z,14.55
2022-10-24T09:44:41.272Z,14.63
2022-10-24T09:46:45.984Z,14.61
2022-10-24T09:48:55.411Z,14.49
2022-10-24T09:50:59.673Z,14.06
2022-10-24T09:53:04.275Z,14.31
2022-10-24T09:55:28.824Z,14.31
2022-10-24T09:57:40.192Z,14.28
2022-10-24T09:59:57.802Z,14.32
2022-10-24T10:02:20.706Z,14.08
2022-10-24T10:04:23.294Z,14.01
2022-10-24T10:06:25.620Z,13.81
2022-10-24T10:08:31.288Z,13.61
2022-10-24T10:10:37.756Z,13.68
2022-10-24T10:12:42.527Z,13.85
2022-10-24T10:14:44.878Z,13.83
2022-10-24T10:17:02.104Z,13.79
2022-10-24T10:19:14.589Z,13.89
2022-10-24T10:21:23.280Z,13.80
2022-10-24T10:23:40.759Z,13.99
2022-10-24T10:25:43.215Z,13.90
2022-10-24T10:27:51.068Z,13.95
2022-10-24T10:30:11.731Z,14.10
2022-10-24T10:32:22.926Z,14.26
2022-10-24T10:34:40.628Z,14.22
2022-10-24T10:36:55.466Z,13.94
2022-10-24T10:39:19.913Z,13.79
2022-10-24T10:41:41.322Z,14.03
2022-10-24T10:43:49.860Z,14.04
2022-10-24T10:46:12.114Z,14.06
2022-10-24T10:48:29.188Z,14.04
2022-10-24T10:50:31.596Z,14.45
2022-10-24T10:52:45.509Z,14.41
2022-10-24T10:55:13.230Z,14.62
2022-10-24T10:57:21.624Z,14.63
2022-10-24T10:59:39.572Z,14.49
2022-10-24T11:02:11.541Z,14.39
2022-10-24T11:04:38.323Z,14.32
2022-10-24T11:07:02.959Z,14.67
2022-10-24T11:09:23.270Z,14.93
2022-10-24T11:11:31.618Z,15.08
2022-10-24T11:13:42.205Z,15.11
2022-10-24T11:15:49.827Z,15.15
2022-10-24T11:18:05.593Z,15.02
2022-10-24T11:20:15.007Z,14.78
2022-10-24T11:22:26.061Z,14.98
2022-10-24T11:24:34.209Z,14.96
2022-10-24T11:26:48.123Z,14.68
2022-10-24T11:29:09.401Z,14.72
2022-10-24T11:31:18.067Z,14.98
2022-10-24T11:33:32.496Z,15.13
2022-10-24T11:35:40.453Z,15.38
2022-10-24T11:37:49.707Z,15.39
2022-10-24T11:39:57.371Z,15.00
2022-10-24T11:42:07.658Z,15.16
2022-10-24T11:44:41.414Z,15.30
2022-10-24T11:46:51.846Z,15.46
2022-10-24T11:49:10.051Z,15.77
2022-10-24T11:51:22.380Z,15.88
2022-10-24T11:53:33.318Z,16.11
2022-10-24T11:55:39.909Z,16.10
2022-10-24T11:57:46.304Z,16.21
2022-10-24T11:59:53.202Z,16.16
2022-10-24T12:01:55.482Z,16.09
2022-10-24T12:04:35.710Z,16.00
2022-10-24T12:07:05.335Z,15.99
2022-10-24T12:09:16.628Z,15.92
2022-10-24T12:11:22.025Z,15.85
2022-10-24T12:13:43.137Z,15.71
2022-10-24T12:16:09.160Z,15.60
2022-10-24T12:18:33.194Z,15.63
2022-10-24T12:20:37.012Z,15.59
2022-10-24T12:22:43.997Z,15.78
2022-10-24T12:24:46.763Z,15.72
2022-10-24T12:26:58.421Z,15.77
2022-10-24T12:29:23.358Z,15.99
2022-10-24T12:31:37.666Z,15.75
2022-10-24T12:33:40.552Z,15.36
2022-10-24T12:35:47.111Z,15.41
2022-10-24T12:37:49.345Z,15.57
2022-10-24T12:39:56.195Z,15.72
2022-10-24T12:42:01.119Z,15.93
2022-10-24T12:44:36.092Z,15.81
2022-10-24T12:46:38.460Z,15.71
2022-10-24T12:49:01.148Z,15.57
2022-10-24T12:51:06.257Z,15.77
2022-10-24T12:53:19.657Z,15.62
2022-10-24T12:55:39.639Z,15.49
2022-10-24T12:57:46.163Z,15.52
2022-10-24T12:59:52.989Z,15.51
2022-10-24T13:02:11.027Z,15.73
2022-10-24T13:04:55.696Z,16.14
2022-10-24T13:07:10.084Z,15.95
2022-10-24T13:10:00.355Z,16.09
2022-10-24T13:12:43.178Z,16.17
2022-10-24T13:14:51.260Z,16.43
2022-10-24T13:17:15.143Z,16.18
2022-10-24T13:19:24.281Z,15.97
2022-10-24T13:21:32.323Z,16.09
2022-10-24T13:23:35.915Z,15.98
2022-10-24T13:25:39.752Z,16.05
2022-10-24T13:27:42.060Z,15.79
2022-10-24T13:29:44.331Z,15.83
2022-10-24T13:31:48.318Z,15.81
2022-10-24T13:33:53.252Z,15.93
2022-10-24T13:36:18.097Z,16.13
2022-10-24T13:40:32.583Z,16.48
2022-10-24T13:42:43.382Z,16.58
2022-10-24T13:44:49.382Z,16.60
2022-10-24T13:47:18.307Z,16.58
2022-10-24T13:49:34.491Z,16.42
2022-10-24T13:51:49.100Z,16.37
2022-10-24T13:53:56.493Z,16.10
2022-10-24T13:56:10.416Z,15.98
2022-10-24T13:58:16.744Z,16.02
2022-10-24T14:00:33.085Z,15.87
2022-10-24T14:02:41.880Z,15.66
2022-10-24T14:04:47.343Z,15.75
2022-10-24T14:06:49.669Z,15.64
2022-10-24T14:09:05.499Z,15.68
2022-10-24T14:11:19.731Z,15.72
2022-10-24T14:13:27.095Z,15.64
2022-10-24T14:15:33.674Z,15.54
2022-10-24T14:17:36.022Z,15.64
2022-10-24T14:19:46.568Z,15.55
2022-10-24T14:21:49.761Z,15.35
2022-10-24T14:23:57.651Z,15.42
2022-10-24T14:26:03.679Z,15.41
2022-10-24T14:28:17.041Z,15.40
2022-10-24T14:30:22.685Z,15.48
2022-10-24T14:32:26.798Z,15.57
2022-10-24T14:34:35.223Z,15.54
2022-10-24T14:36:39.183Z,15.48
2022-10-24T14:38:42.006Z,15.61
2022-10-24T14:40:46.407Z,15.49
2022-10-24T14:42:49.393Z,15.56
2022-10-24T14:44:56.175Z,15.54
2022-10-24T14:47:03.616Z,15.64
2022-10-24T14:49:36.664Z,15.51
2022-10-24T14:51:41.490Z,15.54
2022-10-24T14:53:45.895Z,15.73
2022-10-24T14:55:53.097Z,15.71
2022-10-24T14:57:57.033Z,15.59
2022-10-24T15:00:07.546Z,15.48
2022-10-24T15:02:28.856Z,15.54
2022-10-24T15:04:38.827Z,15.47
2022-10-24T15:06:43.513Z,15.50
2022-10-24T15:08:50.535Z,15.60
2022-10-24T15:11:21.767Z,15.57
2022-10-24T15:13:25.565Z,15.68
2022-10-24T15:15:52.324Z,15.61
2022-10-24T15:18:22.670Z,15.31
2022-10-24T15:20:30.211Z,15.38
2022-10-24T15:22:37.643Z,15.59
2022-10-24T15:24:44.154Z,15.54
2022-10-24T15:26:47.115Z,15.44
2022-10-24T15:28:55.268Z,15.33
2022-10-24T15:30:57.541Z,15.43
2022-10-24T15:33:02.356Z,15.38
2022-10-24T15:35:05.107Z,15.39
2022-10-24T15:37:17.655Z,15.42
2022-10-24T15:39:24.622Z,15.37
2022-10-24T15:41:27.804Z,15.48
2022-10-24T15:43:30.128Z,15.43
2022-10-24T15:45:33.311Z,15.52
2022-10-24T15:47:35.547Z,15.49
2022-10-24T15:49:37.855Z,15.39
2022-10-24T15:51:46.016Z,15.45
2022-10-24T15:53:53.773Z,15.42
2022-10-24T15:55:56.029Z,15.33
2022-10-24T15:58:03.151Z,15.31
2022-10-24T16:00:05.875Z,15.35
2022-10-24T16:02:21.536Z,15.34
2022-10-24T16:04:24.268Z,15.39
2022-10-24T16:06:27.658Z,15.33
2022-10-24T16:08:30.607Z,15.36
2022-10-24T16:10:33.208Z,15.26
2022-10-24T16:12:35.512Z,15.28
2022-10-24T16:14:37.790Z,15.22
2022-10-24T16:16:40.542Z,15.30
2022-10-24T16:18:43.240Z,15.38
2022-10-24T16:20:45.543Z,15.38
2022-10-24T16:22:48.776Z,15.32
2022-10-24T16:24:51.207Z,15.20
2022-10-24T16:26:53.802Z,15.24
2022-10-24T16:28:56.383Z,15.20
2022-10-24T16:30:58.638Z,15.19
2022-10-24T16:33:01.452Z,15.27
2022-10-24T16:35:04.716Z,15.16
2022-10-24T16:37:06.936Z,15.17
2022-10-24T16:39:09.462Z,15.20
2022-10-24T16:41:20.702Z,15.38
2022-10-24T16:43:22.789Z,15.32
2022-10-24T16:45:26.033Z,15.30
2022-10-24T16:47:29.708Z,15.29
2022-10-24T16:49:32.263Z,15.30
2022-10-24T16:51:37.331Z,15.26
2022-10-24T16:53:42.417Z,15.32
2022-10-24T16:55:53.008Z,15.44
2022-10-24T16:57:56.301Z,15.46
2022-10-24T16:59:58.893Z,15.41
2022-10-24T17:02:01.376Z,15.35
2022-10-24T17:04:03.824Z,15.39
2022-10-24T17:06:07.440Z,15.41
2022-10-24T17:08:10.229Z,15.37
2022-10-24T17:10:14.134Z,15.33
2022-10-24T17:12:17.261Z,15.34
2022-10-24T17:14:19.699Z,15.19
2022-10-24T17:16:22.197Z,15.32
2022-10-24T17:18:26.668Z,15.17
2022-10-24T17:20:29.152Z,15.19
2022-10-24T17:24:44.985Z,15.09
2022-10-24T17:26:48.689Z,15.01
2022-10-24T17:28:51.627Z,15.14
2022-10-24T17:30:54.383Z,15.08
2022-10-24T17:32:57.624Z,15.11
2022-10-24T17:35:03.272Z,15.02
2022-10-24T17:37:33.066Z,14.92
2022-10-24T17:39:50.115Z,15.00
2022-10-24T17:41:55.013Z,14.95
2022-10-24T17:43:57.820Z,14.84
2022-10-24T17:46:00.711Z,14.74
2022-10-24T17:48:03.119Z,14.67
2022-10-24T17:50:06.898Z,14.68
2022-10-24T17:52:16.669Z,14.68
2022-10-24T17:54:21.523Z,14.56
2022-10-24T17:56:25.946Z,14.45
2022-10-24T17:58:28.824Z,14.57
2022-10-24T18:00:31.672Z,14.62
2022-10-24T18:02:35.342Z,14.60
2022-10-24T18:04:40.936Z,14.49
2022-10-24T18:06:43.693Z,14.43
2022-10-24T18:08:48.224Z,14.37
2022-10-24T18:10:50.917Z,14.42
2022-10-24T18:12:53.738Z,14.37
2022-10-24T18:14:59.413Z,14.29
2022-10-24T18:17:02.110Z,14.48
2022-10-24T18:19:09.956Z,14.29
2022-10-24T18:21:22.979Z,14.26
2022-10-24T18:23:25.251Z,14.22
2022-10-24T18:25:28.227Z,14.29
2022-10-24T18:27:31.481Z,14.16
2022-10-24T18:29:34.231Z,14.23
2022-10-24T18:31:37.348Z,14.20
2022-10-24T18:33:43.555Z,14.16
2022-10-24T18:35:46.418Z,14.20
2022-10-24T18:37:50.131Z,14.30
2022-10-24T18:39:54.088Z,14.17
2022-10-24T18:42:04.718Z,14.11
2022-10-24T18:44:31.456Z,14.11
2022-10-24T18:46:34.920Z,14.14
2022-10-24T18:48:37.729Z,14.14
2022-10-24T18:50:40.720Z,14.15
2022-10-24T18:53:05.612Z,14.15
2022-10-24T18:55:20.059Z,14.10
2022-10-24T18:57:28.164Z,13.99
2022-10-24T18:59:32.672Z,13.98
2022-10-24T19:01:46.285Z,14.18
2022-10-24T19:03:49.859Z,14.25
2022-10-24T19:06:00.929Z,14.12
2022-10-24T19:08:04.001Z,14.22
2022-10-24T19:10:07.176Z,14.22
2022-10-24T19:12:10.420Z,14.31
2022-10-24T19:14:15.551Z,14.25
2022-10-24T19:16:30.067Z,14.42
2022-10-24T19:18:37.434Z,14.33
2022-10-24T19:20:40.175Z,14.36
2022-10-24T19:22:43.620Z,14.28
2022-10-24T19:24:46.444Z,14.29
2022-10-24T19:26:49.914Z,14.31
2022-10-24T19:28:52.511Z,14.25
2022-10-24T19:30:55.870Z,14.29
2022-10-24T19:32:58.238Z,14.32
2022-10-24T19:35:01.580Z,14.25
2022-10-24T19:37:05.359Z,14.24
2022-10-24T19:39:08.216Z,14.28
2022-10-24T19:41:12.160Z,14.21
2022-10-24T19:43:15.319Z,14.23
2022-10-24T19:45:20.263Z,14.30
2022-10-24T19:47:25.103Z,14.20
2022-10-24T19:49:28.203Z,14.20
2022-10-24T19:51:34.190Z,14.23
2022-10-24T19:53:39.371Z,14.25
2022-10-24T19:55:44.157Z,14.28
2022-10-24T19:57:47.069Z,14.27
2022-10-24T19:59:49.929Z,14.31
2022-10-24T20:01:55.752Z,14.28
2022-10-24T20:04:00.653Z,14.36
2022-10-24T20:06:03.975Z,14.35
2022-10-24T20:08:06.662Z,14.36
2022-10-24T20:10:09.808Z,14.36
2022-10-24T20:12:12.836Z,14.27
2022-10-24T20:14:15.538Z,14.23
2022-10-24T20:16:19.032Z,14.05
2022-10-24T20:18:23.191Z,14.00
2022-10-24T20:20:25.805Z,14.03
2022-10-24T20:22:28.489Z,14.10
2022-10-24T20:24:30.890Z,14.02
2022-10-24T20:26:34.162Z,13.92
2022-10-24T20:28:43.720Z,14.06
2022-10-24T20:30:47.601Z,13.99
2022-10-24T20:32:50.250Z,13.99
2022-10-24T20:34:52.832Z,13.87
2022-10-24T20:36:55.049Z,13.92
2022-10-24T20:39:01.375Z,14.16
2022-10-24T20:41:04.019Z,13.91
2022-10-24T20:43:07.329Z,13.95
2022-10-24T20:45:09.764Z,13.88
2022-10-24T20:47:12.577Z,13.95
2022-10-24T20:49:15.233Z,14.05
2022-10-24T20:51:19.831Z,14.01
2022-10-24T20:53:22.695Z,13.99
2022-10-24T20:55:39.614Z,14.05
2022-10-24T20:57:45.582Z,14.08
2022-10-24T20:59:48.097Z,14.16
2022-10-24T21:01:50.511Z,14.28
2022-10-24T21:03:54.088Z,14.15
2022-10-24T21:05:57.122Z,14.16
2022-10-24T21:07:59.731Z,14.19
2022-10-24T21:10:04.300Z,14.32
2022-10-24T21:12:07.673Z,14.44
2022-10-24T21:14:13.964Z,14.31
2022-10-24T21:16:16.415Z,14.49
2022-10-24T21:18:18.891Z,14.32
2022-10-24T21:20:21.163Z,14.38
2022-10-24T21:22:23.342Z,14.29
2022-10-24T21:24:25.851Z,14.48
2022-10-24T21:26:28.115Z,14.30
2022-10-24T21:28:30.392Z,14.20
2022-10-24T21:30:33.662Z,14.27
2022-10-24T21:32:35.890Z,14.45
2022-10-24T21:34:38.224Z,14.35
2022-10-24T21:36:40.687Z,14.41
2022-10-24T21:38:46.766Z,14.38
2022-10-24T21:40:48.925Z,14.22
2022-10-24T21:42:51.441Z,14.04
2022-10-24T21:44:53.722Z,14.29
2022-10-24T21:46:55.970Z,14.27
2022-10-24T21:48:58.440Z,14.22
2022-10-24T21:51:33.493Z,14.31
2022-10-24T21:53:47.848Z,14.26
2022-10-24T21:55:50.377Z,14.14
2022-10-24T21:57:52.599Z,14.16
2022-10-24T21:59:54.781Z,14.03
